sensor_id;sensor_type;location;lat;lon;timestamp;pressure;altitude;pressure_sealevel;temperature;humidity
28921;BME280;16035;53.594;9.952;2024-03-23T00:53:40;100703.28;;;9.26;70.04
28921;BME280;16035;53.594;9.952;2024-03-23T00:55:41;100696.72;;;9.22;70.28
28921;BME280;16035;53.594;9.952;2024-03-23T00:57:41;100695.91;;;9.21;70.32
28921;BME280;16035;53.594;9.952;2024-03-23T00:59:42;100690.50;;;9.21;69.96
28921;BME280;16035;53.594;9.952;2024-03-23T01:01:42;100695.09;;;9.21;70.13
28921;BME280;16035;53.594;9.952;2024-03-23T01:03:42;100691.25;;;9.17;70.08
28921;BME280;16035;53.594;9.952;2024-03-23T01:05:43;100684.44;;;9.14;70.80
28921;BME280;16035;53.594;9.952;2024-03-23T01:07:43;100672.78;;;9.14;70.55
28921;BME280;16035;53.594;9.952;2024-03-23T01:09:43;100683.88;;;9.12;70.36
28921;BME280;16035;53.594;9.952;2024-03-23T01:11:44;100679.78;;;9.09;70.50
28921;BME280;16035;53.594;9.952;2024-03-23T01:13:44;100673.25;;;9.10;70.34
28921;BME280;16035;53.594;9.952;2024-03-23T01:15:48;100673.78;;;9.07;70.25
28921;BME280;16035;53.594;9.952;2024-03-23T01:17:49;100678.41;;;9.07;70.59
28921;BME280;16035;53.594;9.952;2024-03-23T01:19:49;100677.88;;;9.10;70.23
28921;BME280;16035;53.594;9.952;2024-03-23T01:21:49;100675.44;;;9.08;70.48
28921;BME280;16035;53.594;9.952;2024-03-23T01:23:50;100668.38;;;9.07;70.07
28921;BME280;16035;53.594;9.952;2024-03-23T01:25:54;100660.19;;;9.02;70.01
28921;BME280;16035;53.594;9.952;2024-03-23T01:27:54;100660.69;;;8.99;70.87
28921;BME280;16035;53.594;9.952;2024-03-23T01:29:54;100659.03;;;8.98;70.91
28921;BME280;16035;53.594;9.952;2024-03-23T01:31:55;100660.09;;;8.97;70.51
28921;BME280;16035;53.594;9.952;2024-03-23T01:33:55;100663.88;;;8.96;70.38
28921;BME280;16035;53.594;9.952;2024-03-23T01:35:55;100660.34;;;8.96;70.78
28921;BME280;16035;53.594;9.952;2024-03-23T01:37:56;100658.72;;;8.95;70.50
28921;BME280;16035;53.594;9.952;2024-03-23T01:39:56;100650.09;;;8.98;70.84
28921;BME280;16035;53.594;9.952;2024-03-23T01:41:56;100637.03;;;8.95;70.07
28921;BME280;16035;53.594;9.952;2024-03-23T01:43:57;100646.47;;;8.92;70.30
28921;BME280;16035;53.594;9.952;2024-03-23T01:45:57;100644.53;;;8.88;70.67
28921;BME280;16035;53.594;9.952;2024-03-23T01:47:58;100635.25;;;8.83;70.93
28921;BME280;16035;53.594;9.952;2024-03-23T01:49:59;100633.69;;;8.88;71.03
28921;BME280;16035;53.594;9.952;2024-03-23T01:51:59;100637.75;;;8.85;70.61
28921;BME280;16035;53.594;9.952;2024-03-23T01:54:01;100625.28;;;8.84;70.38
28921;BME280;16035;53.594;9.952;2024-03-23T01:56:03;100624.13;;;8.80;70.86
28921;BME280;16035;53.594;9.952;2024-03-23T01:58:03;100621.66;;;8.78;71.01
28921;BME280;16035;53.594;9.952;2024-03-23T02:00:04;100625.72;;;8.76;70.50
28921;BME280;16035;53.594;9.952;2024-03-23T02:02:06;100617.00;;;8.74;70.90
28921;BME280;16035;53.594;9.952;2024-03-23T02:04:06;100610.81;;;8.78;70.72
28921;BME280;16035;53.594;9.952;2024-03-23T02:06:08;100618.13;;;8.78;70.96
28921;BME280;16035;53.594;9.952;2024-03-23T02:08:08;100613.78;;;8.77;70.94
28921;BME280;16035;53.594;9.952;2024-03-23T02:10:10;100612.16;;;8.76;70.78
28921;BME280;16035;53.594;9.952;2024-03-23T02:12:10;100611.91;;;8.77;71.02
28921;BME280;16035;53.594;9.952;2024-03-23T02:14:10;100606.16;;;8.74;71.28
28921;BME280;16035;53.594;9.952;2024-03-23T02:16:11;100605.66;;;8.77;70.94
28921;BME280;16035;53.594;9.952;2024-03-23T02:18:11;100590.47;;;8.76;71.26
28921;BME280;16035;53.594;9.952;2024-03-23T02:20:12;100596.94;;;8.75;70.66
28921;BME280;16035;53.594;9.952;2024-03-23T02:22:12;100589.84;;;8.69;71.20
28921;BME280;16035;53.594;9.952;2024-03-23T02:24:12;100586.06;;;8.70;70.99
28921;BME280;16035;53.594;9.952;2024-03-23T02:26:13;100579.00;;;8.69;71.19
28921;BME280;16035;53.594;9.952;2024-03-23T02:28:15;100581.44;;;8.70;70.94
28921;BME280;16035;53.594;9.952;2024-03-23T02:30:15;100573.84;;;8.67;70.72
28921;BME280;16035;53.594;9.952;2024-03-23T02:32:16;100568.44;;;8.67;71.27
28921;BME280;16035;53.594;9.952;2024-03-23T02:34:16;100567.63;;;8.67;71.13
28921;BME280;16035;53.594;9.952;2024-03-23T02:36:16;100573.25;;;8.65;71.13
28921;BME280;16035;53.594;9.952;2024-03-23T02:38:17;100571.91;;;8.63;70.99
28921;BME280;16035;53.594;9.952;2024-03-23T02:40:17;100580.84;;;8.63;71.60
28921;BME280;16035;53.594;9.952;2024-03-23T02:42:18;100582.72;;;8.63;70.85
28921;BME280;16035;53.594;9.952;2024-03-23T02:44:18;100565.09;;;8.60;70.71
28921;BME280;16035;53.594;9.952;2024-03-23T02:46:19;100573.47;;;8.58;70.60
28921;BME280;16035;53.594;9.952;2024-03-23T02:48:19;100565.84;;;8.55;70.48
28921;BME280;16035;53.594;9.952;2024-03-23T02:50:19;100571.50;;;8.54;70.84
28921;BME280;16035;53.594;9.952;2024-03-23T02:52:20;100570.13;;;8.51;71.10
28921;BME280;16035;53.594;9.952;2024-03-23T02:54:20;100570.38;;;8.50;71.01
28921;BME280;16035;53.594;9.952;2024-03-23T02:56:21;100574.16;;;8.49;70.56
28921;BME280;16035;53.594;9.952;2024-03-23T02:58:21;100570.31;;;8.45;70.80
28921;BME280;16035;53.594;9.952;2024-03-23T03:00:22;100566.22;;;8.42;70.83
28921;BME280;16035;53.594;9.952;2024-03-23T03:02:22;100559.16;;;8.41;71.10
28921;BME280;16035;53.594;9.952;2024-03-23T03:04:22;100564.84;;;8.40;71.34
28921;BME280;16035;53.594;9.952;2024-03-23T03:06:24;100561.53;;;8.38;71.40
28921;BME280;16035;53.594;9.952;2024-03-23T03:08:24;100549.00;;;8.31;71.14
28921;BME280;16035;53.594;9.952;2024-03-23T03:10:25;100541.69;;;8.32;71.45
28921;BME280;16035;53.594;9.952;2024-03-23T03:12:25;100540.06;;;8.31;71.76
28921;BME280;16035;53.594;9.952;2024-03-23T03:14:25;100539.53;;;8.34;71.46
28921;BME280;16035;53.594;9.952;2024-03-23T03:16:26;100533.66;;;8.37;71.31
28921;BME280;16035;53.594;9.952;2024-03-23T03:18:27;100528.69;;;8.34;71.20
28921;BME280;16035;53.594;9.952;2024-03-23T03:20:27;100532.47;;;8.33;71.27
28921;BME280;16035;53.594;9.952;2024-03-23T03:22:27;100535.44;;;8.31;71.54
28921;BME280;16035;53.594;9.952;2024-03-23T03:24:28;100538.38;;;8.30;71.60
28921;BME280;16035;53.594;9.952;2024-03-23T03:26:28;100528.41;;;8.30;71.58
28921;BME280;16035;53.594;9.952;2024-03-23T03:28:28;100534.06;;;8.29;70.94
28921;BME280;16035;53.594;9.952;2024-03-23T03:30:31;100519.97;;;8.27;71.05
28921;BME280;16035;53.594;9.952;2024-03-23T03:32:32;100519.38;;;8.25;71.61
28921;BME280;16035;53.594;9.952;2024-03-23T03:34:32;100522.84;;;8.20;71.59
28921;BME280;16035;53.594;9.952;2024-03-23T03:36:33;100514.47;;;8.22;71.63
28921;BME280;16035;53.594;9.952;2024-03-23T03:38:33;100513.91;;;8.20;71.35
28921;BME280;16035;53.594;9.952;2024-03-23T03:40:35;100510.13;;;8.21;71.54
28921;BME280;16035;53.594;9.952;2024-03-23T03:42:35;100510.38;;;8.19;71.74
28921;BME280;16035;53.594;9.952;2024-03-23T03:44:36;100515.31;;;8.22;71.56
28921;BME280;16035;53.594;9.952;2024-03-23T03:46:36;100503.88;;;8.20;71.80
28921;BME280;16035;53.594;9.952;2024-03-23T03:48:37;100504.69;;;8.21;71.60
28921;BME280;16035;53.594;9.952;2024-03-23T03:50:38;100499.28;;;8.21;71.61
28921;BME280;16035;53.594;9.952;2024-03-23T03:52:39;100498.16;;;8.17;71.88
28921;BME280;16035;53.594;9.952;2024-03-23T03:54:39;100499.22;;;8.16;71.51
28921;BME280;16035;53.594;9.952;2024-03-23T03:56:40;100491.94;;;8.16;71.82
28921;BME280;16035;53.594;9.952;2024-03-23T03:58:40;100487.25;;;8.11;71.81
28921;BME280;16035;53.594;9.952;2024-03-23T04:00:40;100488.06;;;8.12;72.04
28921;BME280;16035;53.594;9.952;2024-03-23T04:02:41;100484.81;;;8.10;71.95
28921;BME280;16035;53.594;9.952;2024-03-23T04:04:41;100484.81;;;8.10;71.81
28921;BME280;16035;53.594;9.952;2024-03-23T04:06:43;100482.59;;;8.07;71.83
28921;BME280;16035;53.594;9.952;2024-03-23T04:08:43;100482.38;;;8.08;72.43
28921;BME280;16035;53.594;9.952;2024-03-23T04:10:44;100474.81;;;8.10;72.04
28921;BME280;16035;53.594;9.952;2024-03-23T04:12:44;100472.09;;;8.10;72.05
28921;BME280;16035;53.594;9.952;2024-03-23T04:14:45;100478.31;;;8.11;72.16
28921;BME280;16035;53.594;9.952;2024-03-23T04:16:45;100480.81;;;8.13;71.74
28921;BME280;16035;53.594;9.952;2024-03-23T04:18:46;100474.25;;;8.08;71.76
28921;BME280;16035;53.594;9.952;2024-03-23T04:20:50;100473.66;;;8.06;72.03
28921;BME280;16035;53.594;9.952;2024-03-23T04:22:51;100478.53;;;8.04;71.92
28921;BME280;16035;53.594;9.952;2024-03-23T04:24:55;100473.34;;;8.03;72.43
28921;BME280;16035;53.594;9.952;2024-03-23T04:26:56;100471.97;;;8.00;71.77
28921;BME280;16035;53.594;9.952;2024-03-23T04:28:56;100455.97;;;7.99;72.35
28921;BME280;16035;53.594;9.952;2024-03-23T04:30:56;100441.41;;;8.00;72.18
28921;BME280;16035;53.594;9.952;2024-03-23T04:32:57;100448.75;;;8.04;72.41
28921;BME280;16035;53.594;9.952;2024-03-23T04:34:58;100451.69;;;8.03;72.04
28921;BME280;16035;53.594;9.952;2024-03-23T04:36:58;100457.09;;;8.03;72.03
28921;BME280;16035;53.594;9.952;2024-03-23T04:38:59;100463.84;;;8.00;72.47
28921;BME280;16035;53.594;9.952;2024-03-23T04:41:00;100480.91;;;8.01;72.31
28921;BME280;16035;53.594;9.952;2024-03-23T04:43:00;100490.09;;;8.00;72.16
28921;BME280;16035;53.594;9.952;2024-03-23T04:45:01;100484.91;;;7.98;71.83
28921;BME280;16035;53.594;9.952;2024-03-23T04:47:01;100482.47;;;7.97;72.52
28921;BME280;16035;53.594;9.952;2024-03-23T04:49:02;100477.06;;;7.97;72.51
28921;BME280;16035;53.594;9.952;2024-03-23T04:51:04;100484.38;;;7.96;72.58
28921;BME280;16035;53.594;9.952;2024-03-23T04:53:04;100491.09;;;7.94;72.50
28921;BME280;16035;53.594;9.952;2024-03-23T04:55:05;100482.16;;;7.93;72.74
28921;BME280;16035;53.594;9.952;2024-03-23T04:57:06;100478.06;;;7.91;72.27
28921;BME280;16035;53.594;9.952;2024-03-23T04:59:06;100466.34;;;7.85;72.05
28921;BME280;16035;53.594;9.952;2024-03-23T05:01:06;100464.72;;;7.84;72.25
28921;BME280;16035;53.594;9.952;2024-03-23T05:03:07;100448.22;;;7.85;73.02
28921;BME280;16035;53.594;9.952;2024-03-23T05:05:07;100448.81;;;7.88;72.82
28921;BME280;16035;53.594;9.952;2024-03-23T05:07:08;100452.59;;;7.87;72.85
28921;BME280;16035;53.594;9.952;2024-03-23T05:09:08;100449.34;;;7.90;72.80
28921;BME280;16035;53.594;9.952;2024-03-23T05:11:11;100450.16;;;7.90;72.50
28921;BME280;16035;53.594;9.952;2024-03-23T05:13:12;100449.13;;;7.91;72.40
28921;BME280;16035;53.594;9.952;2024-03-23T05:15:12;100442.91;;;7.91;72.50
28921;BME280;16035;53.594;9.952;2024-03-23T05:17:12;100448.06;;;7.92;72.14
28921;BME280;16035;53.594;9.952;2024-03-23T05:19:13;100451.25;;;7.89;72.46
28921;BME280;16035;53.594;9.952;2024-03-23T05:21:13;100452.31;;;7.88;72.16
28921;BME280;16035;53.594;9.952;2024-03-23T05:23:14;100448.75;;;7.82;72.72
28921;BME280;16035;53.594;9.952;2024-03-23T05:25:14;100445.22;;;7.82;72.60
28921;BME280;16035;53.594;9.952;2024-03-23T05:27:16;100449.50;;;7.78;72.43
28921;BME280;16035;53.594;9.952;2024-03-23T05:29:16;100458.41;;;7.78;72.56
28921;BME280;16035;53.594;9.952;2024-03-23T05:31:31;100451.94;;;7.79;72.57
28921;BME280;16035;53.594;9.952;2024-03-23T05:33:31;100453.56;;;7.80;72.45
28921;BME280;16035;53.594;9.952;2024-03-23T05:35:32;100447.00;;;7.76;72.64
28921;BME280;16035;53.594;9.952;2024-03-23T05:37:32;100460.78;;;7.75;71.99
28921;BME280;16035;53.594;9.952;2024-03-23T05:39:34;100445.38;;;7.75;73.06
28921;BME280;16035;53.594;9.952;2024-03-23T05:41:34;100438.66;;;7.78;72.52
28921;BME280;16035;53.594;9.952;2024-03-23T05:43:36;100439.47;;;7.78;72.85
28921;BME280;16035;53.594;9.952;2024-03-23T05:45:36;100434.88;;;7.79;72.49
28921;BME280;16035;53.594;9.952;2024-03-23T05:47:37;100436.50;;;7.80;72.59
28921;BME280;16035;53.594;9.952;2024-03-23T05:49:37;100428.41;;;7.80;72.67
28921;BME280;16035;53.594;9.952;2024-03-23T05:51:37;100417.56;;;7.80;72.29
28921;BME280;16035;53.594;9.952;2024-03-23T05:53:38;100425.13;;;7.78;72.59
28921;BME280;16035;53.594;9.952;2024-03-23T05:55:38;100420.28;;;7.80;72.60
28921;BME280;16035;53.594;9.952;2024-03-23T05:57:38;100413.25;;;7.79;72.99
28921;BME280;16035;53.594;9.952;2024-03-23T05:59:39;100410.03;;;7.82;72.84
28921;BME280;16035;53.594;9.952;2024-03-23T06:01:40;100411.09;;;7.81;73.03
28921;BME280;16035;53.594;9.952;2024-03-23T06:03:40;100418.72;;;7.84;72.76
28921;BME280;16035;53.594;9.952;2024-03-23T06:05:40;100418.78;;;7.89;72.56
28921;BME280;16035;53.594;9.952;2024-03-23T06:07:42;100413.38;;;7.89;72.93
28921;BME280;16035;53.594;9.952;2024-03-23T06:09:43;100418.28;;;7.92;72.57
28921;BME280;16035;53.594;9.952;2024-03-23T06:11:43;100420.19;;;7.92;73.10
28921;BME280;16035;53.594;9.952;2024-03-23T06:13:43;100424.78;;;7.91;72.36
28921;BME280;16035;53.594;9.952;2024-03-23T06:15:44;100421.25;;;7.91;72.44
28921;BME280;16035;53.594;9.952;2024-03-23T06:17:46;100418.28;;;7.92;72.12
28921;BME280;16035;53.594;9.952;2024-03-23T06:19:46;100418.28;;;7.92;72.11
28921;BME280;16035;53.594;9.952;2024-03-23T06:21:47;100426.47;;;7.97;72.23
28921;BME280;16035;53.594;9.952;2024-03-23T06:23:47;100420.56;;;8.00;71.90
28921;BME280;16035;53.594;9.952;2024-03-23T06:25:51;100421.13;;;8.02;72.26
28921;BME280;16035;53.594;9.952;2024-03-23T06:27:51;100417.09;;;8.05;72.51
28921;BME280;16035;53.594;9.952;2024-03-23T06:29:51;100413.88;;;8.08;72.45
28921;BME280;16035;53.594;9.952;2024-03-23T06:31:53;100415.53;;;8.09;72.09
28921;BME280;16035;53.594;9.952;2024-03-23T06:33:55;100415.59;;;8.14;72.17
28921;BME280;16035;53.594;9.952;2024-03-23T06:35:55;100416.19;;;8.21;72.36
28921;BME280;16035;53.594;9.952;2024-03-23T06:37:55;100414.94;;;8.29;72.04
28921;BME280;16035;53.594;9.952;2024-03-23T06:39:56;100410.16;;;8.36;72.34
28921;BME280;16035;53.594;9.952;2024-03-23T06:41:56;100407.78;;;8.40;71.96
28921;BME280;16035;53.594;9.952;2024-03-23T06:43:56;100402.09;;;8.41;71.67
28921;BME280;16035;53.594;9.952;2024-03-23T06:45:57;100399.41;;;8.41;72.06
28921;BME280;16035;53.594;9.952;2024-03-23T06:47:57;100395.06;;;8.40;71.78
28921;BME280;16035;53.594;9.952;2024-03-23T06:49:59;100393.41;;;8.39;71.34
28921;BME280;16035;53.594;9.952;2024-03-23T06:52:02;100396.28;;;8.32;71.95
28921;BME280;16035;53.594;9.952;2024-03-23T06:54:03;100392.28;;;8.35;71.42
28921;BME280;16035;53.594;9.952;2024-03-23T06:56:04;100399.09;;;8.38;71.36
28921;BME280;16035;53.594;9.952;2024-03-23T06:58:04;100395.75;;;8.30;71.07
28921;BME280;16035;53.594;9.952;2024-03-23T07:00:05;100404.91;;;8.29;71.49
28921;BME280;16035;53.594;9.952;2024-03-23T07:02:10;100407.06;;;8.27;71.53
28921;BME280;16035;53.594;9.952;2024-03-23T07:04:10;100401.97;;;8.31;71.13
28921;BME280;16035;53.594;9.952;2024-03-23T07:06:10;100394.47;;;8.38;71.81
28921;BME280;16035;53.594;9.952;2024-03-23T07:08:11;100396.75;;;8.46;71.02
28921;BME280;16035;53.594;9.952;2024-03-23T07:10:11;100398.06;;;8.44;70.71
28921;BME280;16035;53.594;9.952;2024-03-23T07:12:11;100393.97;;;8.41;71.14
28921;BME280;16035;53.594;9.952;2024-03-23T07:14:12;100395.19;;;8.55;71.41
28921;BME280;16035;53.594;9.952;2024-03-23T07:16:13;100393.19;;;8.73;70.60
28921;BME280;16035;53.594;9.952;2024-03-23T07:18:13;100394.94;;;8.84;70.43
28921;BME280;16035;53.594;9.952;2024-03-23T07:20:14;100399.97;;;9.02;70.18
28921;BME280;16035;53.594;9.952;2024-03-23T07:22:14;100402.47;;;9.14;69.20
28921;BME280;16035;53.594;9.952;2024-03-23T07:24:15;100400.66;;;9.20;70.66
28921;BME280;16035;53.594;9.952;2024-03-23T07:26:15;100397.25;;;9.40;69.51
28921;BME280;16035;53.594;9.952;2024-03-23T07:28:16;100406.34;;;9.60;69.99
28921;BME280;16035;53.594;9.952;2024-03-23T07:30:16;100401.19;;;9.64;68.50
28921;BME280;16035;53.594;9.952;2024-03-23T07:32:16;100395.41;;;9.50;68.42
28921;BME280;16035;53.594;9.952;2024-03-23T07:34:17;100398.25;;;9.28;68.67
28921;BME280;16035;53.594;9.952;2024-03-23T07:36:17;100398.25;;;9.28;69.51
28921;BME280;16035;53.594;9.952;2024-03-23T07:38:17;100394.59;;;9.50;69.55
28921;BME280;16035;53.594;9.952;2024-03-23T07:40:17;100396.13;;;9.78;68.91
28921;BME280;16035;53.594;9.952;2024-03-23T07:42:18;100396.72;;;9.95;68.39
28921;BME280;16035;53.594;9.952;2024-03-23T07:44:18;100396.66;;;9.80;67.12
28921;BME280;16035;53.594;9.952;2024-03-23T07:46:18;100393.56;;;10.19;67.40
28921;BME280;16035;53.594;9.952;2024-03-23T07:48:21;100386.09;;;10.77;66.99
28921;BME280;16035;53.594;9.952;2024-03-23T07:50:24;100381.16;;;11.40;66.59
28921;BME280;16035;53.594;9.952;2024-03-23T07:52:28;100387.53;;;12.00;65.75
28921;BME280;16035;53.594;9.952;2024-03-23T07:54:28;100376.25;;;12.67;64.73
28921;BME280;16035;53.594;9.952;2024-03-23T07:56:29;100373.84;;;13.28;64.26
28921;BME280;16035;53.594;9.952;2024-03-23T07:58:29;100372.53;;;13.74;63.01
28921;BME280;16035;53.594;9.952;2024-03-23T08:00:30;100377.88;;;14.08;61.87
28921;BME280;16035;53.594;9.952;2024-03-23T08:02:30;100372.06;;;14.33;61.04
28921;BME280;16035;53.594;9.952;2024-03-23T08:04:31;100374.22;;;14.55;58.96
28921;BME280;16035;53.594;9.952;2024-03-23T08:06:31;100365.88;;;14.65;58.57
28921;BME280;16035;53.594;9.952;2024-03-23T08:08:31;100366.09;;;14.50;58.22
28921;BME280;16035;53.594;9.952;2024-03-23T08:10:32;100359.47;;;14.56;58.39
28921;BME280;16035;53.594;9.952;2024-03-23T08:12:32;100364.94;;;14.89;58.02
28921;BME280;16035;53.594;9.952;2024-03-23T08:14:32;100363.25;;;14.93;57.21
28921;BME280;16035;53.594;9.952;2024-03-23T08:16:33;100361.69;;;15.20;57.13
28921;BME280;16035;53.594;9.952;2024-03-23T08:18:34;100359.34;;;15.27;56.10
28921;BME280;16035;53.594;9.952;2024-03-23T08:20:34;100360.25;;;15.69;56.58
28921;BME280;16035;53.594;9.952;2024-03-23T08:22:35;100349.97;;;16.02;55.25
28921;BME280;16035;53.594;9.952;2024-03-23T08:24:35;100356.63;;;16.23;54.83
28921;BME280;16035;53.594;9.952;2024-03-23T08:26:35;100353.03;;;15.45;54.23
28921;BME280;16035;53.594;9.952;2024-03-23T08:28:37;100352.66;;;15.65;54.78
28921;BME280;16035;53.594;9.952;2024-03-23T08:30:38;100351.59;;;15.61;53.90
28921;BME280;16035;53.594;9.952;2024-03-23T08:32:38;100352.00;;;15.41;52.83
28921;BME280;16035;53.594;9.952;2024-03-23T08:34:38;100348.19;;;14.77;53.46
28921;BME280;16035;53.594;9.952;2024-03-23T08:36:39;100349.41;;;14.52;54.03
28921;BME280;16035;53.594;9.952;2024-03-23T08:38:39;100345.59;;;14.10;53.76
28921;BME280;16035;53.594;9.952;2024-03-23T08:40:40;100348.31;;;13.91;55.04
28921;BME280;16035;53.594;9.952;2024-03-23T08:42:40;100348.78;;;13.50;55.36
28921;BME280;16035;53.594;9.952;2024-03-23T08:44:41;100349.22;;;13.62;56.36
28921;BME280;16035;53.594;9.952;2024-03-23T08:46:43;100340.03;;;13.53;56.32
28921;BME280;16035;53.594;9.952;2024-03-23T08:48:45;100330.56;;;14.50;55.91
28921;BME280;16035;53.594;9.952;2024-03-23T08:50:47;100335.88;;;14.93;54.49
28921;BME280;16035;53.594;9.952;2024-03-23T08:52:47;100332.97;;;14.71;54.04
28921;BME280;16035;53.594;9.952;2024-03-23T08:54:47;100338.03;;;14.96;54.57
28921;BME280;16035;53.594;9.952;2024-03-23T08:56:48;100332.63;;;15.51;53.83
28921;BME280;16035;53.594;9.952;2024-03-23T08:58:48;100332.72;;;14.86;52.60
28921;BME280;16035;53.594;9.952;2024-03-23T09:00:48;100326.94;;;14.55;53.62
28921;BME280;16035;53.594;9.952;2024-03-23T09:02:50;100336.16;;;14.59;54.24
28921;BME280;16035;53.594;9.952;2024-03-23T09:04:50;100326.47;;;15.87;53.56
28921;BME280;16035;53.594;9.952;2024-03-23T09:06:50;100333.66;;;15.97;50.46
28921;BME280;16035;53.594;9.952;2024-03-23T09:08:51;100328.41;;;14.99;48.87
28921;BME280;16035;53.594;9.952;2024-03-23T09:10:52;100324.19;;;15.20;51.27
28921;BME280;16035;53.594;9.952;2024-03-23T09:12:52;100320.28;;;15.81;50.49
28921;BME280;16035;53.594;9.952;2024-03-23T09:14:53;100315.25;;;15.14;49.50
28921;BME280;16035;53.594;9.952;2024-03-23T09:16:54;100323.00;;;14.42;50.83
28921;BME280;16035;53.594;9.952;2024-03-23T09:18:54;100325.84;;;13.75;50.57
28921;BME280;16035;53.594;9.952;2024-03-23T09:20:54;100324.28;;;13.45;51.57
28921;BME280;16035;53.594;9.952;2024-03-23T09:22:55;100319.53;;;13.32;51.68
28921;BME280;16035;53.594;9.952;2024-03-23T09:24:55;100325.03;;;13.27;52.24
28921;BME280;16035;53.594;9.952;2024-03-23T09:26:55;100332.38;;;12.97;52.58
28921;BME280;16035;53.594;9.952;2024-03-23T09:28:55;100324.69;;;12.70;52.73
28921;BME280;16035;53.594;9.952;2024-03-23T09:31:05;100330.84;;;12.52;52.76
28921;BME280;16035;53.594;9.952;2024-03-23T09:33:05;100332.94;;;12.65;53.39
28921;BME280;16035;53.594;9.952;2024-03-23T09:35:06;100335.34;;;13.30;53.21
28921;BME280;16035;53.594;9.952;2024-03-23T09:37:06;100317.25;;;13.63;51.66
28921;BME280;16035;53.594;9.952;2024-03-23T09:39:07;100318.22;;;13.24;51.31
28921;BME280;16035;53.594;9.952;2024-03-23T09:41:09;100308.19;;;12.85;51.83
28921;BME280;16035;53.594;9.952;2024-03-23T09:43:10;100319.44;;;13.61;52.25
28921;BME280;16035;53.594;9.952;2024-03-23T09:46:01;100316.41;;;13.86;50.71
28921;BME280;16035;53.594;9.952;2024-03-23T09:47:37;100318.00;;;13.69;50.27
28921;BME280;16035;53.594;9.952;2024-03-23T09:49:38;100304.94;;;13.42;50.77
28921;BME280;16035;53.594;9.952;2024-03-23T09:51:40;100317.53;;;13.61;50.61
28921;BME280;16035;53.594;9.952;2024-03-23T09:53:41;100308.94;;;13.25;49.14
28921;BME280;16035;53.594;9.952;2024-03-23T09:55:42;100311.84;;;12.76;50.41
28921;BME280;16035;53.594;9.952;2024-03-23T09:57:43;100322.16;;;12.45;49.99
28921;BME280;16035;53.594;9.952;2024-03-23T09:59:43;100313.56;;;12.32;51.49
28921;BME280;16035;53.594;9.952;2024-03-23T10:01:43;100316.06;;;12.19;51.99
28921;BME280;16035;53.594;9.952;2024-03-23T10:03:44;100319.16;;;12.07;52.04
28921;BME280;16035;53.594;9.952;2024-03-23T10:05:45;100322.25;;;11.80;51.52
28921;BME280;16035;53.594;9.952;2024-03-23T10:07:46;100315.91;;;12.00;52.89
28921;BME280;16035;53.594;9.952;2024-03-23T10:09:46;100306.47;;;12.95;52.87
28921;BME280;16035;53.594;9.952;2024-03-23T10:11:53;100301.09;;;13.67;50.81
28921;BME280;16035;53.594;9.952;2024-03-23T10:14:07;100286.72;;;14.88;51.41
28921;BME280;16035;53.594;9.952;2024-03-23T10:16:07;100282.41;;;15.83;49.34
28921;BME280;16035;53.594;9.952;2024-03-23T10:18:18;100275.34;;;16.63;47.40
28921;BME280;16035;53.594;9.952;2024-03-23T10:20:20;100274.22;;;16.64;46.21
28921;BME280;16035;53.594;9.952;2024-03-23T10:22:23;100267.44;;;16.39;46.13
28921;BME280;16035;53.594;9.952;2024-03-23T10:24:24;100272.22;;;15.98;45.29
28921;BME280;16035;53.594;9.952;2024-03-23T10:26:25;100271.47;;;15.28;46.23
28921;BME280;16035;53.594;9.952;2024-03-23T10:28:26;100277.84;;;14.63;46.24
28921;BME280;16035;53.594;9.952;2024-03-23T10:30:26;100283.41;;;13.83;46.11
28921;BME280;16035;53.594;9.952;2024-03-23T10:32:28;100287.28;;;13.34;48.06
28921;BME280;16035;53.594;9.952;2024-03-23T10:34:28;100283.81;;;12.99;48.21
28921;BME280;16035;53.594;9.952;2024-03-23T10:36:29;100286.19;;;12.77;48.73
28921;BME280;16035;53.594;9.952;2024-03-23T10:38:30;100285.56;;;12.56;47.88
28921;BME280;16035;53.594;9.952;2024-03-23T10:40:30;100281.88;;;12.36;48.88
28921;BME280;16035;53.594;9.952;2024-03-23T10:42:33;100287.72;;;12.25;49.71
28921;BME280;16035;53.594;9.952;2024-03-23T10:44:34;100285.78;;;12.25;49.72
28921;BME280;16035;53.594;9.952;2024-03-23T10:46:35;100281.22;;;12.55;50.09
28921;BME280;16035;53.594;9.952;2024-03-23T10:48:37;100279.03;;;12.86;48.99
28921;BME280;16035;53.594;9.952;2024-03-23T10:50:38;100273.28;;;12.87;48.99
28921;BME280;16035;53.594;9.952;2024-03-23T10:52:39;100265.72;;;13.08;49.51
28921;BME280;16035;53.594;9.952;2024-03-23T10:54:43;100264.78;;;13.18;48.79
28921;BME280;16035;53.594;9.952;2024-03-23T10:56:44;100265.91;;;12.88;48.05
28921;BME280;16035;53.594;9.952;2024-03-23T10:58:49;100262.16;;;12.55;48.20
28921;BME280;16035;53.594;9.952;2024-03-23T11:00:51;100258.91;;;12.48;47.95
28921;BME280;16035;53.594;9.952;2024-03-23T11:02:54;100256.41;;;12.56;48.95
28921;BME280;16035;53.594;9.952;2024-03-23T11:04:54;100251.28;;;12.79;49.04
28921;BME280;16035;53.594;9.952;2024-03-23T11:06:54;100247.25;;;13.00;49.00
28921;BME280;16035;53.594;9.952;2024-03-23T11:08:55;100244.84;;;13.23;48.57
28921;BME280;16035;53.594;9.952;2024-03-23T11:11:14;100250.13;;;13.38;48.24
28921;BME280;16035;53.594;9.952;2024-03-23T11:13:21;100260.00;;;13.77;47.59
28921;BME280;16035;53.594;9.952;2024-03-23T11:15:22;100243.66;;;14.28;46.61
28921;BME280;16035;53.594;9.952;2024-03-23T11:17:24;100244.88;;;14.74;44.91
28921;BME280;16035;53.594;9.952;2024-03-23T11:19:35;100244.47;;;14.48;44.54
28921;BME280;16035;53.594;9.952;2024-03-23T11:21:53;100250.19;;;14.13;44.02
28921;BME280;16035;53.594;9.952;2024-03-23T11:23:54;100249.06;;;14.14;45.04
28921;BME280;16035;53.594;9.952;2024-03-23T11:25:54;100243.53;;;14.01;45.18
28921;BME280;16035;53.594;9.952;2024-03-23T11:27:58;100236.09;;;13.87;45.71
28921;BME280;16035;53.594;9.952;2024-03-23T11:30:12;100239.13;;;13.67;45.73
28921;BME280;16035;53.594;9.952;2024-03-23T11:32:13;100243.28;;;13.40;44.69